LQSA Airport Information

Runway Information
Runway 12 Length 8666 ft width 150 ft
Elevation 1643 ft Threshold 333 ft Heading 117
Runway 30 Length 8666 ft Width 150 ft
Elevation 1690 ft Threshold 1666 ft Heading 297
Airport Frequencies
Type APP Name APP Frequency 136.45 MHZ
Type GCA Name GCA Frequency 119.4 MHZ
Type GND Name GND Frequency 121.9 MHZ
Type TWR Name TWR Frequency 118.25 MHZ
Airport Navaids
Type NDB Name Sarajevo Frequency 436 KHZ
Type VOR-DME Name Sarajevo Frequency 116700 KHZ
Type NDB Name Kobiljaca Frequency 358 KHZ
Type VORTAC Name Sarajevo Frequency 108850 KHZ
Airport Weather Information & NOTAM
ADDS - METARS form results

(0945 UTC 19 September 2018)
Data provider http://aviationweather.gov/metar/data/
 
METAR text: LQSA 190930Z VRB01KT 9999 FEW040 22/13 Q1022 NOSIG
Conditions at: LQSA (SARAJEVO/BUTMIR , CS) observed 0930 UTC 19 September 2018
Temperature: 22.0°C (72°F)
Dewpoint: 13.0°C (55°F) [RH = 57%]
Pressure (altimeter): 30.18 inches Hg (1022.0 mb)
Winds: variable direction winds at 1 MPH (1 knots; 0.5 m/s)
Visibility: 6 or more miles (10+ km)
Ceiling: at least 12,000 feet AGL
Clouds: few clouds at 4000 feet AGL
Weather: no significant weather observed at this time

METAR text: LQSA 190900Z VRB02KT 9999 FEW040 20/12 Q1022 NOSIG
Conditions at: LQSA (SARAJEVO/BUTMIR , CS) observed 0900 UTC 19 September 2018
Temperature: 20.0°C (68°F)
Dewpoint: 12.0°C (54°F) [RH = 60%]
Pressure (altimeter): 30.18 inches Hg (1022.0 mb)
Winds: variable direction winds at 2 MPH (2 knots; 1.0 m/s)
Visibility: 6 or more miles (10+ km)
Ceiling: at least 12,000 feet AGL
Clouds: few clouds at 4000 feet AGL
Weather: no significant weather observed at this time

Forecast for: LQSA (SARAJEVO/BUTMIR , CS)
Text: TAF LQSA 190500Z 1906/2006 VRB02KT CAVOK TX27/1913Z TN11/2004Z
Forecast period: 0600 UTC 19 September 2018 to 0600 UTC 20 September 2018
Forecast type: FROM: standard forecast or significant change
Winds: variable direction winds at 2 MPH (2 knots; 1.0 m/s)
Visibility: 6 or more miles 10+ km)
Ceiling: unknown
Clouds: missing
Weather: no significant weather forecast for this period
Text: PROB30
Forecast period: 1300 to 1600 UTC 19 September 2018
Forecast type: TEMPORARY: The following changes expected for less than half the time period
Visibility: missing
Ceiling: at least 12,000 feet AGL
Clouds: few clouds at 3000 feet AGL
scattered clouds at 6000 feet AGL
Weather: TSRA  (rain associated with thunderstorm(s))